KOGD/OGD METAR and TAF weather

Enter ICAO airport designator
Station Type Date Time Source
KOGD METAR 2022/06/30 13:53 UTC NOAA

KOGD 301353Z 32008KT 10SM CLR 23/06 A3007 RMK AO2 RAE00 SLP113 P0000 T02330061


Station Type Date Time Source
KOGD Decoded METAR 2022/06/30 13:53 UTC NOAA

OGDEN-HINCKLEY AIRPORT, UT, United States (KOGD) 41-12N 112-01W 1353M
Jun 30, 2022 - 09:53 AM EDT / 2022.06.30 1353 UTC
Wind: from the NW (320 degrees) at 9 MPH (8 KT):0
Visibility: 10 mile(s):0
Sky conditions: clear
Precipitation last hour: A trace
Temperature: 73.9 F (23.3 C)
Dew Point: 43.0 F (6.1 C)
Relative Humidity: 32%
Pressure (altimeter): 30.07 in. Hg (1018 hPa)
ob: KOGD 301353Z 32008KT 10SM CLR 23/06 A3007 RMK AO2 RAE00 SLP113 P0000 T02330061
cycle: 14

Station Type Date Time Source
KOGD TAF 2022/06/30 12:22 UTC NOAA

TAF KOGD 301120Z 3012/0112 17005KT P6SM FEW100 SCT140
FM301900 25010KT P6SM FEW150
FM010300 17008KT P6SM FEW150

Example: see airport list